createdAt,value
2022-12-23T00:00:56.303Z,94728.9
2022-12-23T00:01:59.438Z,94721.8
2022-12-23T00:03:03.240Z,94721.6
2022-12-23T00:04:06.620Z,94713.9
2022-12-23T00:05:09.048Z,94706.5
2022-12-23T00:06:11.308Z,94705.2
2022-12-23T00:07:13.535Z,94694.5
2022-12-23T00:08:15.786Z,94698.2
2022-12-23T00:09:18.082Z,94691.6
2022-12-23T00:10:19.768Z,94694.2
2022-12-23T00:11:22.028Z,94692.3
2022-12-23T00:12:24.281Z,94686.7
2022-12-23T00:13:26.918Z,94687.1
2022-12-23T00:14:29.182Z,94683.8
2022-12-23T00:15:31.734Z,94688.6
2022-12-23T00:16:34.485Z,94689.7
2022-12-23T00:17:36.858Z,94689
2022-12-23T00:18:39.091Z,94687.7
2022-12-23T00:19:41.711Z,94689
2022-12-23T00:20:44.010Z,94683.7
2022-12-23T00:21:46.243Z,94677.6
2022-12-23T00:22:48.481Z,94687.5
2022-12-23T00:23:51.007Z,94689.2
2022-12-23T00:24:53.581Z,94694.8
2022-12-23T00:25:55.816Z,94688.3
2022-12-23T00:26:58.331Z,94690.4
2022-12-23T00:28:00.919Z,94684
2022-12-23T00:29:03.741Z,94673.5
2022-12-23T00:30:06.405Z,94671.4
2022-12-23T00:31:08.939Z,94665.6
2022-12-23T00:32:11.912Z,94670.1
2022-12-23T00:33:14.570Z,94667.2
2022-12-23T00:34:16.813Z,94662.8
2022-12-23T00:35:19.339Z,94664.6
2022-12-23T00:36:22.075Z,94663.4
2022-12-23T00:37:24.444Z,94658.1
2022-12-23T00:38:26.934Z,94655.2
2022-12-23T00:39:29.222Z,94653.4
2022-12-23T00:40:31.759Z,94643.2
2022-12-23T00:41:33.441Z,94629.5
2022-12-23T00:42:35.679Z,94637.7
2022-12-23T00:43:38.306Z,94645.4
2022-12-23T00:44:40.965Z,94632.4
2022-12-23T00:45:43.677Z,94634.1
2022-12-23T00:46:46.079Z,94631.2
2022-12-23T00:47:48.337Z,94629.3
2022-12-23T00:48:50.841Z,94621
2022-12-23T00:49:53.084Z,94618.1
2022-12-23T00:50:55.599Z,94615.3
2022-12-23T00:51:57.893Z,94616
2022-12-23T00:53:00.426Z,94611.1
2022-12-23T00:54:02.943Z,94617.3
2022-12-23T00:55:05.160Z,94621.5
2022-12-23T00:56:07.665Z,94625.6
2022-12-23T00:57:09.983Z,94632.4
2022-12-23T00:58:12.515Z,94630.3
2022-12-23T00:59:15.147Z,94633.8
2022-12-23T01:00:17.765Z,94620
2022-12-23T01:01:20.671Z,94614.9
2022-12-23T01:02:24.129Z,94617.5
2022-12-23T01:03:27.029Z,94614.2
2022-12-23T01:04:29.137Z,94612
2022-12-23T01:05:31.397Z,94604.8
2022-12-23T01:06:33.948Z,94603.5
2022-12-23T01:07:36.493Z,94601.7
2022-12-23T01:08:38.976Z,94603.4
2022-12-23T01:09:40.937Z,94604.9
2022-12-23T01:10:43.450Z,94597.6
2022-12-23T01:11:45.671Z,94606.3
2022-12-23T01:12:48.187Z,94610.4
2022-12-23T01:13:50.384Z,94608.7
2022-12-23T01:14:53.324Z,94609.4
2022-12-23T01:15:55.899Z,94604.6
2022-12-23T01:16:58.853Z,94600
2022-12-23T01:18:01.174Z,94589
2022-12-23T01:19:03.702Z,94597.4
2022-12-23T01:20:06.269Z,94599.1
2022-12-23T01:21:08.762Z,94602.1
2022-12-23T01:22:11.355Z,94597.7
2022-12-23T01:23:13.688Z,94606.9
2022-12-23T01:24:15.926Z,94597.8
2022-12-23T01:25:17.619Z,94600.8
2022-12-23T01:26:20.150Z,94600.6
2022-12-23T01:27:22.387Z,94601.5
2022-12-23T01:28:24.898Z,94598.4
2022-12-23T01:29:27.126Z,94603.5
2022-12-23T01:30:29.806Z,94603.2
2022-12-23T01:31:32.316Z,94603.3
2022-12-23T01:32:35.004Z,94601.6
2022-12-23T01:33:38.054Z,94602.8
2022-12-23T01:34:40.569Z,94600.8
2022-12-23T01:35:43.092Z,94599.5
2022-12-23T01:36:45.342Z,94598.2
2022-12-23T01:37:47.563Z,94598.4
2022-12-23T01:38:50.077Z,94601.7
2022-12-23T01:39:52.070Z,94602.8
2022-12-23T01:40:54.298Z,94597.4
2022-12-23T01:41:56.793Z,94594.5
2022-12-23T01:42:59.311Z,94596.4
2022-12-23T01:44:01.567Z,94599.7
2022-12-23T01:45:03.868Z,94601.4
2022-12-23T01:46:06.394Z,94606
2022-12-23T01:47:09.144Z,94604.4
2022-12-23T01:48:11.403Z,94601.9
2022-12-23T01:49:13.371Z,94596.6
2022-12-23T01:50:15.925Z,94601.1
2022-12-23T01:51:18.156Z,94592.9
2022-12-23T01:52:20.718Z,94594.5
2022-12-23T01:53:22.419Z,94599.7
2022-12-23T01:54:24.934Z,94589.2
2022-12-23T01:55:27.503Z,94599.8
2022-12-23T01:56:29.776Z,94597.1
2022-12-23T01:57:32.324Z,94598.4
2022-12-23T01:58:34.573Z,94592.8
2022-12-23T01:59:37.079Z,94599.2
2022-12-23T02:00:39.607Z,94599.8
2022-12-23T02:01:42.860Z,94599.6
2022-12-23T02:02:46.252Z,94598.8
2022-12-23T02:03:49.035Z,94598.4
2022-12-23T02:04:51.535Z,94605.1
2022-12-23T02:05:54.025Z,94601.1
2022-12-23T02:06:56.247Z,94601.2
2022-12-23T02:07:58.499Z,94596.7
2022-12-23T02:09:00.476Z,94602.5
2022-12-23T02:10:02.749Z,94607
2022-12-23T02:11:05.262Z,94601.8
2022-12-23T02:12:07.828Z,94601.8
2022-12-23T02:13:10.394Z,94603.5
2022-12-23T02:14:12.899Z,94608.4
2022-12-23T02:15:15.406Z,94609
2022-12-23T02:16:18.361Z,94607.5
2022-12-23T02:17:21.113Z,94618.3
2022-12-23T02:18:23.716Z,94617.9
2022-12-23T02:19:25.966Z,94615.6
2022-12-23T02:20:28.206Z,94622.9
2022-12-23T02:21:30.862Z,94618.5
2022-12-23T02:22:33.593Z,94620.6
2022-12-23T02:23:36.129Z,94614.3
2022-12-23T02:24:38.358Z,94613.3
2022-12-23T02:25:40.598Z,94619.7
2022-12-23T02:26:43.087Z,94616.1
2022-12-23T02:27:45.628Z,94618.3
2022-12-23T02:28:48.145Z,94614.1
2022-12-23T02:29:50.651Z,94622.6
2022-12-23T02:30:53.164Z,94622.7
2022-12-23T02:31:55.807Z,94620.6
2022-12-23T02:32:58.442Z,94628.9
2022-12-23T02:34:01.027Z,94619.8
2022-12-23T02:35:03.519Z,94623.2
2022-12-23T02:36:06.066Z,94626.6
2022-12-23T02:37:08.598Z,94625.4
2022-12-23T02:38:10.890Z,94624.5
2022-12-23T02:39:13.118Z,94628.6
2022-12-23T02:40:15.643Z,94626.8
2022-12-23T02:41:17.866Z,94625.4
2022-12-23T02:42:20.399Z,94627.4
2022-12-23T02:43:22.916Z,94623.9
2022-12-23T02:44:25.128Z,94632.9
2022-12-23T02:45:27.412Z,94630.6
2022-12-23T02:46:30.230Z,94625.5
2022-12-23T02:47:33.026Z,94628
2022-12-23T02:48:35.383Z,94638.6
2022-12-23T02:49:37.943Z,94630.6
2022-12-23T02:50:40.472Z,94629.9
2022-12-23T02:51:42.748Z,94632.2
2022-12-23T02:52:45.004Z,94636.2
2022-12-23T02:53:47.028Z,94640.4
2022-12-23T02:54:49.594Z,94636.9
2022-12-23T02:55:51.839Z,94641
2022-12-23T02:56:54.073Z,94645.8
2022-12-23T02:57:56.589Z,94640
2022-12-23T02:58:59.098Z,94635.2
2022-12-23T03:00:01.747Z,94640.5
2022-12-23T03:01:04.592Z,94639.7
2022-12-23T03:02:07.638Z,94644.8
2022-12-23T03:03:10.778Z,94635.4
2022-12-23T03:04:13.625Z,94636.5
2022-12-23T03:05:16.241Z,94638.9
2022-12-23T03:06:18.756Z,94626.1
2022-12-23T03:07:21.010Z,94639.7
2022-12-23T03:08:23.319Z,94633.5
2022-12-23T03:09:25.859Z,94637
2022-12-23T03:10:28.088Z,94643.5
2022-12-23T03:11:30.668Z,94637.4
2022-12-23T03:12:33.018Z,94631.5
2022-12-23T03:13:35.544Z,94634.6
2022-12-23T03:14:38.080Z,94634
2022-12-23T03:15:40.816Z,94634.1
2022-12-23T03:16:43.527Z,94628.4
2022-12-23T03:17:46.035Z,94627.9
2022-12-23T03:18:48.571Z,94632.6
2022-12-23T03:19:51.303Z,94635.7
2022-12-23T03:20:54.037Z,94628.7
2022-12-23T03:21:56.554Z,94640.5
2022-12-23T03:22:59.072Z,94633.8
2022-12-23T03:24:01.301Z,94633.1
2022-12-23T03:25:03.553Z,94632
2022-12-23T03:26:06.055Z,94635.4
2022-12-23T03:27:08.275Z,94636
2022-12-23T03:28:10.813Z,94635
2022-12-23T03:29:13.360Z,94637.3
2022-12-23T03:30:15.630Z,94635.4
2022-12-23T03:31:18.225Z,94638.4
2022-12-23T03:32:20.968Z,94642.2
2022-12-23T03:33:23.504Z,94641.1
2022-12-23T03:34:25.445Z,94638.1
2022-12-23T03:35:28.042Z,94639
2022-12-23T03:36:30.358Z,94641.9
2022-12-23T03:37:32.886Z,94644
2022-12-23T03:38:35.438Z,94638.5
2022-12-23T03:39:37.976Z,94642
2022-12-23T03:40:40.195Z,94639.6
2022-12-23T03:41:42.698Z,94639.1
2022-12-23T03:42:45.198Z,94642.5
2022-12-23T03:45:57.903Z,94652.2
2022-12-23T03:47:00.331Z,94647.5
2022-12-23T03:48:02.828Z,94651.4
2022-12-23T03:49:05.429Z,94652.8
2022-12-23T03:50:07.696Z,94653.2
2022-12-23T03:51:10.330Z,94648.9
2022-12-23T03:53:17.844Z,94655.5
2022-12-23T03:54:20.371Z,94651.4
2022-12-23T03:55:22.870Z,94660
2022-12-23T03:56:25.090Z,94665.2
2022-12-23T03:57:27.592Z,94663.1
2022-12-23T03:58:30.079Z,94660.1
2022-12-23T03:59:32.437Z,94662.6
2022-12-23T04:00:34.979Z,94666.9
2022-12-23T04:01:37.711Z,94660.4
2022-12-23T04:02:40.938Z,94661.5
2022-12-23T04:03:44.051Z,94662.2
2022-12-23T04:04:46.386Z,94665
2022-12-23T04:05:48.798Z,94667.4
2022-12-23T04:06:51.373Z,94669
2022-12-23T04:07:53.951Z,94669.5
2022-12-23T04:08:56.456Z,94663.4
2022-12-23T04:09:58.979Z,94666
2022-12-23T04:11:01.485Z,94666.7
2022-12-23T04:12:03.985Z,94670.5
2022-12-23T04:13:05.907Z,94661.5
2022-12-23T04:14:08.446Z,94666.4
2022-12-23T04:16:16.378Z,94667.3
2022-12-23T04:17:18.892Z,94663.4
2022-12-23T04:18:21.422Z,94663.4
2022-12-23T04:19:23.968Z,94667.5
2022-12-23T04:20:26.208Z,94667.5
2022-12-23T04:21:28.729Z,94667.8
2022-12-23T04:22:31.338Z,94666.4
2022-12-23T04:23:33.948Z,94676.7
2022-12-23T04:24:36.496Z,94671.3
2022-12-23T04:25:38.700Z,94670.8
2022-12-23T04:26:40.939Z,94669.2
2022-12-23T04:27:43.178Z,94677.9
2022-12-23T04:28:45.703Z,94680.1
2022-12-23T04:29:47.978Z,94686.8
2022-12-23T04:30:50.230Z,94680.9
2022-12-23T04:31:52.800Z,94680.5
2022-12-23T04:32:55.209Z,94680.9
2022-12-23T04:33:57.449Z,94682.5
2022-12-23T04:34:59.992Z,94681.3
2022-12-23T04:36:02.519Z,94681
2022-12-23T04:37:05.050Z,94682.9
2022-12-23T04:38:07.758Z,94685.7
2022-12-23T04:39:10.323Z,94680.7
2022-12-23T04:40:12.859Z,94682.2
2022-12-23T04:41:15.403Z,94684.9
2022-12-23T04:42:17.628Z,94689.8
2022-12-23T04:43:20.146Z,94691.6
2022-12-23T04:44:22.719Z,94693.5
2022-12-23T04:45:25.277Z,94689.4
2022-12-23T04:46:27.716Z,94692.9
2022-12-23T04:47:30.362Z,94687.9
2022-12-23T04:48:32.578Z,94689.5
2022-12-23T04:49:35.086Z,94690.7
2022-12-23T04:50:37.604Z,94688.1
2022-12-23T04:51:39.853Z,94692.3
2022-12-23T04:52:42.151Z,94693.3
2022-12-23T04:53:44.767Z,94697.4
2022-12-23T04:54:48.110Z,94704
2022-12-23T04:55:50.638Z,94699.6
2022-12-23T04:56:53.006Z,94697.7
2022-12-23T04:57:55.217Z,94700.9
2022-12-23T04:58:57.736Z,94695.5
2022-12-23T05:00:00.242Z,94692.1
2022-12-23T05:01:03.069Z,94696.7
2022-12-23T05:02:06.529Z,94699.4
2022-12-23T05:03:10.038Z,94689.9
2022-12-23T05:04:13.095Z,94692.1
2022-12-23T05:05:15.470Z,94685.6
2022-12-23T05:06:17.716Z,94691.4
2022-12-23T05:07:20.238Z,94691.5
2022-12-23T05:08:22.472Z,94697.6
2022-12-23T05:09:25.084Z,94689.5
2022-12-23T05:10:27.684Z,94689.8
2022-12-23T05:11:30.279Z,94701.5
2022-12-23T05:12:32.543Z,94702.5
2022-12-23T05:13:34.776Z,94701.8
2022-12-23T05:14:37.010Z,94696.3
2022-12-23T05:15:54.404Z,94687.4
2022-12-23T05:18:03.059Z,94692.8
2022-12-23T05:19:05.552Z,94696.9
2022-12-23T05:20:07.808Z,94704.2
2022-12-23T05:21:10.078Z,94703
2022-12-23T05:22:12.604Z,94703.6
2022-12-23T05:23:15.136Z,94706.2
2022-12-23T05:24:17.648Z,94707.8
2022-12-23T05:25:19.724Z,94705.2
2022-12-23T05:26:22.316Z,94698.1
2022-12-23T05:27:24.561Z,94699.1
2022-12-23T05:28:27.076Z,94707.3
2022-12-23T05:29:29.586Z,94703.2
2022-12-23T05:30:31.817Z,94708.1
2022-12-23T05:31:34.625Z,94712.5
2022-12-23T05:32:37.021Z,94712
2022-12-23T05:33:39.895Z,94714.2
2022-12-23T05:34:42.278Z,94709.4
2022-12-23T05:35:44.773Z,94710.7
2022-12-23T05:36:47.324Z,94709.6
2022-12-23T05:37:49.288Z,94709.1
2022-12-23T05:38:51.809Z,94702.8
2022-12-23T05:39:54.344Z,94705.3
2022-12-23T05:40:56.979Z,94704.5
2022-12-23T05:41:59.593Z,94706.5
2022-12-23T05:43:02.200Z,94703.5
2022-12-23T05:44:04.706Z,94704.7
2022-12-23T05:45:07.211Z,94703.1
2022-12-23T05:46:09.872Z,94709.5
2022-12-23T05:47:12.239Z,94712.3
2022-12-23T05:48:14.730Z,94712.9
2022-12-23T05:49:17.010Z,94714.5
2022-12-23T05:50:19.551Z,94720.9
2022-12-23T05:51:22.186Z,94713.5
2022-12-23T05:52:24.766Z,94724.5
2022-12-23T05:53:27.052Z,94711.7
2022-12-23T05:54:29.296Z,94719.1
2022-12-23T05:55:31.527Z,94710.3
2022-12-23T05:56:34.142Z,94717.7
2022-12-23T05:57:37.679Z,94721
2022-12-23T05:58:41.387Z,94717.4
2022-12-23T05:59:42.854Z,94722.3
2022-12-23T06:00:45.439Z,94724
2022-12-23T06:01:48.446Z,94731.3
2022-12-23T06:03:56.944Z,94719.9
2022-12-23T06:04:59.551Z,94722.3
2022-12-23T06:06:01.840Z,94727.1
2022-12-23T06:07:04.101Z,94729.2
2022-12-23T06:08:06.664Z,94729.5
2022-12-23T06:09:09.189Z,94727.7
2022-12-23T06:10:11.820Z,94726.6
2022-12-23T06:11:14.370Z,94730.6
2022-12-23T06:12:16.948Z,94735
2022-12-23T06:13:19.642Z,94737.2
2022-12-23T06:15:26.848Z,94739.6
2022-12-23T06:16:29.403Z,94738.5
2022-12-23T06:17:31.991Z,94740.1
2022-12-23T06:18:34.536Z,94736.8
2022-12-23T06:19:37.054Z,94735.6
2022-12-23T06:20:39.574Z,94737.4
2022-12-23T06:21:41.839Z,94744.1
2022-12-23T06:22:44.430Z,94735.1
2022-12-23T06:23:46.935Z,94742.7
2022-12-23T06:24:49.482Z,94741.5
2022-12-23T06:25:51.718Z,94750.6
2022-12-23T06:27:59.668Z,94744.3
2022-12-23T06:29:01.965Z,94750.2
2022-12-23T06:30:04.474Z,94745.5
2022-12-23T06:31:07.002Z,94748.1
2022-12-23T06:32:09.826Z,94747.4
2022-12-23T06:33:12.451Z,94746.9
2022-12-23T06:34:14.991Z,94756.5
2022-12-23T06:35:17.566Z,94758.8
2022-12-23T06:36:20.095Z,94768.1
2022-12-23T06:37:22.365Z,94766.8
2022-12-23T06:38:24.631Z,94766.3
2022-12-23T06:39:27.143Z,94766.4
2022-12-23T06:40:29.920Z,94775.7
2022-12-23T06:41:32.167Z,94778.2
2022-12-23T06:42:34.696Z,94780.9
2022-12-23T06:43:37.095Z,94778.8
2022-12-23T06:44:39.660Z,94784.3
2022-12-23T06:45:42.373Z,94784.9
2022-12-23T06:46:45.008Z,94782
2022-12-23T06:47:47.007Z,94784.5
2022-12-23T06:48:49.635Z,94793.5
2022-12-23T06:49:51.897Z,94790.8
2022-12-23T06:50:54.431Z,94790.1
2022-12-23T06:51:56.640Z,94783.5
2022-12-23T06:52:58.863Z,94792.9
2022-12-23T06:54:01.083Z,94793.3
2022-12-23T06:55:03.719Z,94797.7
2022-12-23T06:56:05.948Z,94798
2022-12-23T06:57:08.466Z,94793.5
2022-12-23T06:58:10.963Z,94794.4
2022-12-23T06:59:13.554Z,94794.2
2022-12-23T07:00:16.200Z,94798
2022-12-23T07:01:18.836Z,94797.4
2022-12-23T07:02:22.256Z,94804
2022-12-23T07:03:25.334Z,94804.5
2022-12-23T07:04:27.679Z,94804.7
2022-12-23T07:06:35.299Z,94806.1
2022-12-23T07:07:37.827Z,94810.6
2022-12-23T07:08:40.085Z,94807.9
2022-12-23T07:09:42.114Z,94807.9
2022-12-23T07:10:44.345Z,94810.8
2022-12-23T07:11:46.586Z,94809.3
2022-12-23T07:13:54.099Z,94814.6
2022-12-23T07:14:56.729Z,94814.9
2022-12-23T07:15:59.375Z,94817.1
2022-12-23T07:17:02.054Z,94814.5
2022-12-23T07:18:04.720Z,94819.7
2022-12-23T07:19:07.294Z,94815.8
2022-12-23T07:20:09.608Z,94814.5
2022-12-23T07:22:17.138Z,94828.1
2022-12-23T07:23:19.391Z,94829.4
2022-12-23T07:24:21.917Z,94828.2
2022-12-23T07:25:24.441Z,94829
2022-12-23T07:26:26.972Z,94828
2022-12-23T07:27:29.570Z,94838.7
2022-12-23T07:28:31.915Z,94833.7
2022-12-23T07:29:34.172Z,94834.5
2022-12-23T07:30:36.807Z,94835.2
2022-12-23T07:32:44.072Z,94835.2
2022-12-23T07:33:46.586Z,94836.5
2022-12-23T07:34:49.095Z,94829.9
2022-12-23T07:35:51.326Z,94828.8
2022-12-23T07:36:53.822Z,94832.8
2022-12-23T07:37:56.068Z,94835.8
2022-12-23T07:38:58.318Z,94837.1
2022-12-23T07:41:05.864Z,94832.8
2022-12-23T07:43:13.373Z,94839.2
2022-12-23T07:44:15.873Z,94840.4
2022-12-23T07:45:18.399Z,94842.4
2022-12-23T07:46:21.123Z,94848.2
2022-12-23T07:47:23.545Z,94843.5
2022-12-23T07:48:25.476Z,94846.6
2022-12-23T07:49:27.423Z,94841.9
2022-12-23T07:50:29.988Z,94841.9
2022-12-23T07:51:32.527Z,94844.5
2022-12-23T07:52:34.226Z,94848.7
2022-12-23T07:53:36.808Z,94847.7
2022-12-23T07:54:39.062Z,94846
2022-12-23T07:55:41.320Z,94851.4
2022-12-23T07:56:43.811Z,94849
2022-12-23T07:57:45.745Z,94843
2022-12-23T07:58:48.793Z,94843
2022-12-23T07:59:50.735Z,94849
2022-12-23T08:00:52.737Z,94850.5
2022-12-23T08:01:55.820Z,94847.3
2022-12-23T08:02:59.762Z,94849.2
2022-12-23T08:04:02.562Z,94848
2022-12-23T08:05:05.117Z,94850.3
2022-12-23T08:06:07.759Z,94852.6
2022-12-23T08:07:09.996Z,94847.5
2022-12-23T08:08:12.219Z,94852.9
2022-12-23T08:09:14.209Z,94849.6
2022-12-23T08:10:16.443Z,94853.5
2022-12-23T08:11:18.948Z,94857.9
2022-12-23T08:12:21.466Z,94855.6
2022-12-23T08:13:23.997Z,94862.6
2022-12-23T08:14:26.215Z,94855.3
2022-12-23T08:15:28.472Z,94857.4
2022-12-23T08:16:31.317Z,94855.9
2022-12-23T08:17:38.352Z,94860.7
2022-12-23T08:18:40.963Z,94856.4
2022-12-23T08:19:43.500Z,94861.2
2022-12-23T08:20:45.734Z,94862.7
2022-12-23T08:21:47.951Z,94860.5
2022-12-23T08:22:50.527Z,94854.3
2022-12-23T08:23:52.774Z,94857.2
2022-12-23T08:24:55.277Z,94855.2
2022-12-23T08:25:57.806Z,94861.6
2022-12-23T08:27:00.312Z,94863.9
2022-12-23T08:28:02.581Z,94859.7
2022-12-23T08:29:04.799Z,94860
2022-12-23T08:30:07.334Z,94857.8
2022-12-23T08:31:10.236Z,94860.2
2022-12-23T08:32:12.951Z,94860.9
2022-12-23T08:33:15.602Z,94861
2022-12-23T08:34:17.919Z,94857.5
2022-12-23T08:35:19.897Z,94856.5
2022-12-23T08:37:27.409Z,94854.7
2022-12-23T08:38:29.671Z,94854.2
2022-12-23T08:39:31.640Z,94859.5
2022-12-23T08:40:34.194Z,94853.5
2022-12-23T08:41:36.169Z,94860.7
2022-12-23T08:42:39.213Z,94861.3
2022-12-23T08:43:41.455Z,94853
2022-12-23T08:44:43.996Z,94857.1
2022-12-23T08:45:46.805Z,94853.4
2022-12-23T08:46:49.599Z,94856.4
2022-12-23T08:47:52.265Z,94852
2022-12-23T08:48:54.954Z,94855.8
2022-12-23T08:49:57.600Z,94857.7
2022-12-23T08:51:00.109Z,94853.8
2022-12-23T08:52:02.628Z,94853.9
2022-12-23T08:53:05.148Z,94856.1
2022-12-23T08:54:07.670Z,94857.9
2022-12-23T08:55:10.188Z,94856.5
2022-12-23T08:56:12.741Z,94859.9
2022-12-23T08:57:15.290Z,94864.2
2022-12-23T08:58:17.354Z,94864.8
2022-12-23T08:59:21.426Z,94870.9
2022-12-23T09:00:24.274Z,94877
2022-12-23T09:01:27.576Z,94882.5
2022-12-23T09:02:31.358Z,94883.5
2022-12-23T09:03:34.265Z,94891.5
2022-12-23T09:04:37.150Z,94890.8
2022-12-23T09:05:39.729Z,94895
2022-12-23T09:06:42.173Z,94896.6
2022-12-23T09:07:44.502Z,94893.5
2022-12-23T09:08:47.025Z,94900.2
2022-12-23T09:09:49.277Z,94894.9
2022-12-23T09:10:51.250Z,94900.6
2022-12-23T09:11:53.520Z,94896.8
2022-12-23T09:14:00.848Z,94900.2
2022-12-23T09:15:03.327Z,94897
2022-12-23T09:16:05.902Z,94894.7
2022-12-23T09:17:08.610Z,94896.2
2022-12-23T09:18:11.130Z,94894.1
2022-12-23T09:19:13.736Z,94894.4
2022-12-23T09:20:16.379Z,94892.9
2022-12-23T09:21:19.142Z,94890.5
2022-12-23T09:22:21.713Z,94888.5
2022-12-23T09:23:23.977Z,94890.3
2022-12-23T09:24:26.228Z,94889.8
2022-12-23T09:25:28.795Z,94886.4
2022-12-23T09:26:31.340Z,94887.9
2022-12-23T09:27:33.630Z,94892.1
2022-12-23T09:28:36.197Z,94889.8
2022-12-23T09:29:38.706Z,94881.1
2022-12-23T09:30:40.691Z,94880.7
2022-12-23T09:31:43.616Z,94887.4
2022-12-23T09:32:46.277Z,94887.5
2022-12-23T09:33:48.242Z,94892.4
2022-12-23T09:34:50.777Z,94883.2
2022-12-23T09:35:53.152Z,94882.5
2022-12-23T09:36:57.192Z,94880.7
2022-12-23T09:37:59.708Z,94889.6
2022-12-23T09:39:02.305Z,94886.6
2022-12-23T09:40:04.522Z,94886.5
2022-12-23T09:41:06.487Z,94888.3
2022-12-23T09:42:08.733Z,94876.2
2022-12-23T09:43:11.026Z,94880.4
2022-12-23T09:44:13.352Z,94883.7
2022-12-23T09:45:15.603Z,94880.8
2022-12-23T09:46:18.495Z,94882.2
2022-12-23T09:47:21.228Z,94884.9
2022-12-23T09:48:23.754Z,94884.8
2022-12-23T09:49:26.029Z,94885.8
2022-12-23T09:50:27.785Z,94883.4
2022-12-23T09:51:30.416Z,94891.1
2022-12-23T09:52:32.995Z,94883.2
2022-12-23T09:53:35.540Z,94887.5
2022-12-23T09:54:38.038Z,94883
2022-12-23T09:55:41.367Z,94885.6
2022-12-23T09:56:43.871Z,94877.8
2022-12-23T09:57:46.093Z,94876.1
2022-12-23T09:58:48.338Z,94871.5
2022-12-23T09:59:50.837Z,94871.7
2022-12-23T10:00:53.374Z,94873.7
2022-12-23T10:01:56.267Z,94876.4
2022-12-23T10:03:00.468Z,94870.3
2022-12-23T10:04:03.807Z,94872.5
2022-12-23T10:05:06.368Z,94870.4
2022-12-23T10:06:08.895Z,94876.9
2022-12-23T10:07:11.533Z,94872.2
2022-12-23T10:08:14.137Z,94869.7
2022-12-23T10:09:16.476Z,94869.7
2022-12-23T10:10:19.095Z,94869.7
2022-12-23T10:11:21.714Z,94867.7
2022-12-23T10:13:29.229Z,94867.8
2022-12-23T10:14:31.855Z,94867.3
2022-12-23T10:15:33.837Z,94864
2022-12-23T10:16:36.472Z,94867.1
2022-12-23T10:17:39.182Z,94869
2022-12-23T10:18:41.710Z,94862.7
2022-12-23T10:19:43.937Z,94865.6
2022-12-23T10:20:46.476Z,94861.2
2022-12-23T10:21:49.473Z,94862.5
2022-12-23T10:22:51.783Z,94859.6
2022-12-23T10:23:54.395Z,94854.4
2022-12-23T10:24:56.907Z,94856.2
2022-12-23T10:25:59.175Z,94861.7
2022-12-23T10:27:01.687Z,94855.8
2022-12-23T10:28:04.187Z,94858.6
2022-12-23T10:29:06.429Z,94857.9
2022-12-23T10:32:19.179Z,94855.2
2022-12-23T10:33:21.563Z,94853
2022-12-23T10:34:24.072Z,94856.1
2022-12-23T10:35:26.300Z,94859.3
2022-12-23T10:36:28.860Z,94859.3
2022-12-23T10:37:31.451Z,94856.4
2022-12-23T10:38:33.874Z,94856
2022-12-23T10:39:36.471Z,94851.8
2022-12-23T10:40:38.747Z,94854.7
2022-12-23T10:41:41.291Z,94854.5
2022-12-23T10:42:43.846Z,94856.6
2022-12-23T10:43:46.119Z,94849.5
2022-12-23T10:44:49.022Z,94849.9
2022-12-23T10:45:51.259Z,94846.9
2022-12-23T10:46:54.429Z,94847.8
2022-12-23T10:47:56.483Z,94845.9
2022-12-23T10:48:59.038Z,94840.5
2022-12-23T10:50:01.671Z,94844.2
2022-12-23T10:51:03.748Z,94839.6
2022-12-23T10:52:06.036Z,94844.9
2022-12-23T10:53:08.592Z,94841.5
2022-12-23T10:54:11.239Z,94840.9
2022-12-23T10:55:13.824Z,94845.6
2022-12-23T10:56:15.903Z,94845.4
2022-12-23T10:57:18.435Z,94844.4
2022-12-23T10:58:20.939Z,94847.3
2022-12-23T10:59:23.461Z,94845.3
2022-12-23T11:00:25.798Z,94843.7
2022-12-23T11:01:29.647Z,94838.8
2022-12-23T11:02:33.333Z,94837.1
2022-12-23T11:03:37.264Z,94840.4
2022-12-23T11:04:39.591Z,94839.5
2022-12-23T11:05:42.757Z,94840.4
2022-12-23T11:06:45.264Z,94837.3
2022-12-23T11:07:48.299Z,94833
2022-12-23T11:08:51.099Z,94836.4
2022-12-23T11:09:54.677Z,94838
2022-12-23T11:10:57.231Z,94832.4
2022-12-23T11:11:59.517Z,94833
2022-12-23T11:13:01.778Z,94833.3
2022-12-23T11:14:04.317Z,94837.6
2022-12-23T11:15:06.838Z,94831.3
2022-12-23T11:16:09.306Z,94838.5
2022-12-23T11:17:11.946Z,94833.5
2022-12-23T11:18:14.295Z,94834
2022-12-23T11:19:16.887Z,94834.6
2022-12-23T11:20:19.174Z,94825.4
2022-12-23T11:21:21.764Z,94824.1
2022-12-23T11:22:24.292Z,94829
2022-12-23T11:23:26.563Z,94827
2022-12-23T11:24:29.137Z,94825.9
2022-12-23T11:25:31.780Z,94828.7
2022-12-23T11:26:34.413Z,94834
2022-12-23T11:27:37.679Z,94825.3
2022-12-23T11:28:40.205Z,94821.5
2022-12-23T11:29:42.813Z,94821.4
2022-12-23T11:31:51.097Z,94811.8
2022-12-23T11:32:53.796Z,94818.2
2022-12-23T11:33:56.330Z,94814.4
2022-12-23T11:34:58.853Z,94811.1
2022-12-23T11:36:01.235Z,94811.6
2022-12-23T11:38:08.490Z,94803.1
2022-12-23T11:39:10.805Z,94797.9
2022-12-23T11:40:13.418Z,94795.3
2022-12-23T11:41:15.865Z,94796.1
2022-12-23T11:42:18.459Z,94801.8
2022-12-23T11:43:20.696Z,94796.6
2022-12-23T11:44:22.973Z,94794.5
2022-12-23T11:45:25.483Z,94792.7
2022-12-23T11:46:28.415Z,94793.3
2022-12-23T11:47:31.163Z,94796.4
2022-12-23T11:48:33.730Z,94795.3
2022-12-23T11:49:37.099Z,94793.7
2022-12-23T11:50:39.323Z,94792.8
2022-12-23T11:51:42.385Z,94785
2022-12-23T11:52:44.646Z,94785.9
2022-12-23T11:53:46.894Z,94785.8
2022-12-23T11:55:55.116Z,94790.9
2022-12-23T11:56:57.874Z,94787.3
2022-12-23T11:58:00.269Z,94788.3
2022-12-23T11:59:02.812Z,94789.3
2022-12-23T12:00:05.322Z,94779.1
2022-12-23T12:01:07.583Z,94778.5
2022-12-23T12:02:10.104Z,94782.1
2022-12-23T12:03:13.025Z,94787.3
2022-12-23T12:04:15.609Z,94789.4
2022-12-23T12:05:18.124Z,94785.3
2022-12-23T12:06:20.703Z,94788.2
2022-12-23T12:07:23.209Z,94787.7
2022-12-23T12:08:25.192Z,94786.3
2022-12-23T12:09:27.718Z,94793
2022-12-23T12:10:30.322Z,94794.8
2022-12-23T12:11:32.563Z,94787
2022-12-23T12:12:34.911Z,94792.2
2022-12-23T12:13:37.983Z,94791
2022-12-23T12:14:40.275Z,94790.6
2022-12-23T12:15:43.933Z,94782.8
2022-12-23T12:16:46.893Z,94785.6
2022-12-23T12:17:50.804Z,94780.3
2022-12-23T12:19:58.297Z,94779.6
2022-12-23T12:21:00.834Z,94779
2022-12-23T12:22:03.071Z,94779.3
2022-12-23T12:23:05.632Z,94779.4
2022-12-23T12:25:12.899Z,94777.6
2022-12-23T12:26:14.891Z,94775.8
2022-12-23T12:27:17.136Z,94773.8
2022-12-23T12:28:19.439Z,94769.4
2022-12-23T12:29:22.043Z,94771.1
2022-12-23T12:30:24.804Z,94766.6
2022-12-23T12:31:27.655Z,94764.2
2022-12-23T12:32:30.113Z,94770.7
2022-12-23T12:33:32.388Z,94768.4
2022-12-23T12:34:34.651Z,94764.3
2022-12-23T12:35:37.172Z,94766.4
2022-12-23T12:36:39.946Z,94763.7
2022-12-23T12:37:42.942Z,94761
2022-12-23T12:38:45.170Z,94762.9
2022-12-23T12:39:47.493Z,94758.7
2022-12-23T12:40:49.440Z,94757.3
2022-12-23T12:41:52.904Z,94754.1
2022-12-23T12:42:55.421Z,94755.8
2022-12-23T12:43:58.020Z,94757.1
2022-12-23T12:45:00.666Z,94752.7
2022-12-23T12:46:03.600Z,94752.4
2022-12-23T12:49:16.222Z,94759.5
2022-12-23T12:50:18.725Z,94755.6
2022-12-23T12:51:21.265Z,94755
2022-12-23T12:52:23.803Z,94752.5
2022-12-23T12:53:26.617Z,94759.6
2022-12-23T12:54:28.953Z,94756.8
2022-12-23T12:55:31.477Z,94755.5
2022-12-23T12:56:33.992Z,94758.5
2022-12-23T12:57:36.577Z,94755.5
2022-12-23T12:58:39.139Z,94752.7
2022-12-23T12:59:42.491Z,94752.9
2022-12-23T13:00:44.774Z,94751.7
2022-12-23T13:01:47.396Z,94749.3
2022-12-23T13:02:50.092Z,94745.7
2022-12-23T13:03:53.042Z,94745
2022-12-23T13:04:55.033Z,94743.3
2022-12-23T13:05:57.546Z,94735.4
2022-12-23T13:06:59.786Z,94733.5
2022-12-23T13:08:02.100Z,94735.2
2022-12-23T13:09:04.634Z,94728.6
2022-12-23T13:10:07.147Z,94726.2